Time;durP1;ratioP1;P1;durP2;ratioP2;P2;SDS_P1;SDS_P2;PMS_P1;PMS_P2;Temp;Humidity;BMP_temperature;BMP_pressure;BME280_temperature;BME280_humidity;BME280_pressure;Samples;Min_cycle;Max_cycle;Signal;HPM_P1;HPM_P2
2020/12/19 00:02:08;;;;;;;59.25;39.30;;;;;;;-144.15;0.00;65763.66;10280328;28;20087;-68
2020/12/19 00:07:19;;;;;;;49.25;35.42;;;;;;;-144.15;0.00;65763.66;10280171;28;20060;-68
2020/12/19 00:12:20;;;;;;;56.85;39.40;;;;;;;-144.15;0.00;65763.66;10261647;28;20068;-67
2020/12/19 00:17:18;;;;;;;57.92;39.88;;;;;;;-144.15;0.00;65763.66;10278645;28;20156;-68
2020/12/19 00:22:16;;;;;;;63.25;41.67;;;;;;;-144.15;0.00;65763.66;10279652;28;20076;-69
2020/12/19 00:27:15;;;;;;;55.10;36.78;;;;;;;-144.15;0.00;65763.66;10279692;28;20056;-68
2020/12/19 00:32:14;;;;;;;82.13;50.25;;;;;;;-144.15;0.00;65763.66;10279269;28;20041;-70
2020/12/19 00:37:24;;;;;;;56.47;38.67;;;;;;;-144.15;0.00;65763.66;10279126;28;20080;-68
2020/12/19 00:42:23;;;;;;;55.42;37.80;;;;;;;-144.15;0.00;65763.66;10278450;28;20052;-68
2020/12/19 00:47:21;;;;;;;57.08;37.88;;;;;;;-144.15;0.00;65763.66;10278706;28;20525;-68
2020/12/19 00:52:20;;;;;;;76.65;47.08;;;;;;;-144.15;0.00;65763.66;10278615;28;20073;-67
2020/12/19 00:57:17;;;;;;;74.82;46.03;;;;;;;-144.15;0.00;65763.66;10278337;28;20048;-68
2020/12/19 01:02:16;;;;;;;55.53;36.72;;;;;;;-144.15;0.00;65763.66;10278148;28;20439;-67
2020/12/19 01:07:14;;;;;;;83.00;49.08;;;;;;;-144.15;0.00;65763.66;10277449;28;20476;-68
2020/12/19 01:12:11;;;;;;;56.30;38.00;;;;;;;-144.15;0.00;65763.66;10277562;28;20049;-68
2020/12/19 01:17:09;;;;;;;46.42;31.58;;;;;;;-144.15;0.00;65763.66;10277635;28;20057;-68
2020/12/19 01:22:08;;;;;;;43.63;31.15;;;;;;;-144.15;0.00;65763.66;10276952;28;20701;-69
2020/12/19 01:27:05;;;;;;;44.05;30.60;;;;;;;-144.15;0.00;65763.66;10277083;28;20072;-68
2020/12/19 01:32:03;;;;;;;44.13;31.40;;;;;;;-144.15;0.00;65763.66;10276828;28;20076;-68
2020/12/19 01:37:01;;;;;;;46.88;32.78;;;;;;;-144.15;0.00;65763.66;10276765;28;20398;-67
2020/12/19 01:42:00;;;;;;;55.28;36.55;;;;;;;-144.15;0.00;65763.66;10276408;28;20080;-68
2020/12/19 01:46:59;;;;;;;70.05;44.53;;;;;;;-144.15;0.00;65763.66;10276297;28;20472;-67
2020/12/19 01:52:00;;;;;;;49.22;32.70;;;;;;;-144.15;0.00;65763.66;10276288;28;20072;-68
2020/12/19 01:57:00;;;;;;;52.03;35.65;;;;;;;-144.15;0.00;65763.66;10276167;28;20045;-67
2020/12/19 02:02:05;;;;;;;61.88;39.38;;;;;;;-144.15;0.00;65763.66;10275825;28;20469;-67
2020/12/19 02:07:05;;;;;;;58.53;39.22;;;;;;;-144.15;0.00;65763.66;10275948;28;20115;-69
2020/12/19 02:12:05;;;;;;;54.00;34.38;;;;;;;-144.15;0.00;65763.66;10275533;28;20060;-67
2020/12/19 02:17:05;;;;;;;54.40;35.55;;;;;;;-144.15;0.00;65763.66;10274903;28;20076;-68
2020/12/19 02:22:05;;;;;;;73.30;47.47;;;;;;;-144.15;0.00;65763.66;10275093;28;20052;-67
2020/12/19 02:27:03;;;;;;;85.32;51.65;;;;;;;-144.15;0.00;65763.66;10275313;28;20490;-69
2020/12/19 02:32:02;;;;;;;58.05;39.10;;;;;;;-144.15;0.00;65763.66;10274602;28;20079;-68
2020/12/19 02:37:00;;;;;;;51.05;33.85;;;;;;;-144.15;0.00;65763.66;10274816;28;20076;-67
2020/12/19 02:41:58;;;;;;;65.05;38.58;;;;;;;-144.15;0.00;65763.66;10274648;28;20049;-68
2020/12/19 02:46:56;;;;;;;60.58;39.33;;;;;;;-144.15;0.00;65763.66;10274809;28;20075;-67
2020/12/19 02:51:54;;;;;;;51.30;34.88;;;;;;;-144.15;0.00;65763.66;10274923;28;20041;-68
2020/12/19 02:56:52;;;;;;;55.05;35.17;;;;;;;-144.15;0.00;65763.66;10275376;28;20414;-68
2020/12/19 03:01:50;;;;;;;73.57;43.20;;;;;;;-144.15;0.00;65763.66;10274770;28;20045;-68
2020/12/19 03:06:49;;;;;;;50.00;33.05;;;;;;;-144.15;0.00;65763.66;10275136;28;20114;-68
2020/12/19 03:11:47;;;;;;;53.25;34.55;;;;;;;-144.15;0.00;65763.66;10274443;28;20506;-67
2020/12/19 03:16:45;;;;;;;63.60;39.10;;;;;;;-144.15;0.00;65763.66;10275465;28;20049;-66
2020/12/19 03:21:43;;;;;;;54.60;35.95;;;;;;;-144.15;0.00;65763.66;10275118;28;20049;-69
2020/12/19 03:26:41;;;;;;;57.53;36.08;;;;;;;-144.15;0.00;65763.66;10275387;28;20075;-68
2020/12/19 03:31:39;;;;;;;48.92;30.90;;;;;;;-144.15;0.00;65763.66;10280468;28;20156;-68
2020/12/19 03:36:37;;;;;;;87.93;50.97;;;;;;;-144.15;0.00;65763.66;10282258;28;20073;-68
2020/12/19 03:41:35;;;;;;;72.93;44.42;;;;;;;-144.15;0.00;65763.66;10282212;28;20060;-68
2020/12/19 03:46:33;;;;;;;57.95;37.78;;;;;;;-144.15;0.00;65763.66;10280432;28;20081;-69
2020/12/19 03:51:31;;;;;;;47.10;32.35;;;;;;;-144.15;0.00;65763.66;10281940;28;20044;-68
2020/12/19 03:56:29;;;;;;;107.07;49.20;;;;;;;-144.15;0.00;65763.66;10281034;28;20505;-67
2020/12/19 04:01:27;;;;;;;57.30;33.92;;;;;;;-144.15;0.00;65763.66;10281078;28;20497;-69
2020/12/19 04:06:25;;;;;;;97.30;46.35;;;;;;;-144.15;0.00;65763.66;10281127;28;20083;-68
2020/12/19 04:11:23;;;;;;;90.70;42.72;;;;;;;-144.15;0.00;65763.66;10280790;28;20057;-68
2020/12/19 04:16:21;;;;;;;49.45;31.67;;;;;;;-144.15;0.00;65763.66;10279937;28;20096;-69
2020/12/19 04:21:19;;;;;;;79.30;40.00;;;;;;;-144.15;0.00;65763.66;10280185;28;20513;-68
2020/12/19 04:26:20;;;;;;;66.32;37.17;;;;;;;-144.15;0.00;65763.66;10280055;28;20087;-68
2020/12/19 04:31:18;;;;;;;59.75;34.33;;;;;;;-144.15;0.00;65763.66;10280330;28;20060;-67
2020/12/19 04:36:16;;;;;;;49.17;32.17;;;;;;;-144.15;0.00;65763.66;10279940;28;20482;-68
2020/12/19 04:41:14;;;;;;;50.67;29.50;;;;;;;-144.15;0.00;65763.66;10278128;28;20045;-68
2020/12/19 04:46:16;;;;;;;49.47;31.95;;;;;;;-144.15;0.00;65763.66;10260834;28;20049;-68
2020/12/19 04:51:14;;;;;;;56.97;34.63;;;;;;;-144.15;0.00;65763.66;10279127;28;20529;-69
2020/12/19 04:56:15;;;;;;;51.33;32.97;;;;;;;-144.15;0.00;65763.66;10277807;28;20044;-69
2020/12/19 05:01:13;;;;;;;52.80;33.95;;;;;;;-144.15;0.00;65763.66;10279072;28;20041;-69
2020/12/19 05:06:11;;;;;;;58.22;34.65;;;;;;;-144.15;0.00;65763.66;10277558;28;20465;-69
2020/12/19 05:11:09;;;;;;;65.00;37.20;;;;;;;-144.15;0.00;65763.66;10278543;28;20077;-69
2020/12/19 05:16:08;;;;;;;57.25;35.38;;;;;;;-144.15;0.00;65763.66;10278584;28;20070;-69
2020/12/19 05:21:08;;;;;;;54.08;31.80;;;;;;;-144.15;0.00;65763.66;10278325;28;20068;-70
2020/12/19 05:26:08;;;;;;;55.70;33.47;;;;;;;-144.15;0.00;65763.66;10277845;28;20458;-69
2020/12/19 05:31:06;;;;;;;53.45;31.17;;;;;;;-144.15;0.00;65763.66;10276107;28;20059;-69
2020/12/19 05:36:05;;;;;;;56.67;31.63;;;;;;;-144.15;0.00;65763.66;10277404;28;20053;-68
2020/12/19 05:41:04;;;;;;;52.88;30.08;;;;;;;-144.15;0.00;65763.66;10277555;28;20500;-69
2020/12/19 05:46:02;;;;;;;50.85;30.02;;;;;;;-144.15;0.00;65763.66;10276009;28;20076;-68
2020/12/19 05:51:01;;;;;;;80.13;48.03;;;;;;;-144.15;0.00;65763.66;10277281;28;20040;-68
2020/12/19 05:55:59;;;;;;;64.00;36.75;;;;;;;-144.15;0.00;65763.66;10276301;28;20080;-70
2020/12/19 06:00:59;;;;;;;72.47;40.95;;;;;;;-144.15;0.00;65763.66;10275861;28;20048;-67
2020/12/19 06:05:58;;;;;;;55.70;31.33;;;;;;;-144.15;0.00;65763.66;10275732;28;20091;-69
2020/12/19 06:10:56;;;;;;;75.65;43.30;;;;;;;-144.15;0.00;65763.66;10275823;28;20490;-69
2020/12/19 06:16:00;;;;;;;65.63;41.15;;;;;;;-144.15;0.00;65763.66;10276315;28;20045;-67
2020/12/19 06:20:58;;;;;;;64.18;37.95;;;;;;;-144.15;0.00;65763.66;10276279;28;20080;-69
2020/12/19 06:25:56;;;;;;;52.63;32.08;;;;;;;-144.15;0.00;65763.66;10276091;28;20072;-68
2020/12/19 06:31:05;;;;;;;55.08;34.60;;;;;;;-144.15;0.00;65763.66;10276216;28;20079;-68
2020/12/19 06:36:04;;;;;;;62.15;39.03;;;;;;;-144.15;0.00;65763.66;10274742;28;20533;-68
2020/12/19 06:41:06;;;;;;;56.05;33.75;;;;;;;-144.15;0.00;65763.66;10275512;28;20052;-67
2020/12/19 06:46:24;;;;;;;62.42;34.97;;;;;;;-144.15;0.00;65763.66;10275377;28;20501;-68
2020/12/19 06:51:22;;;;;;;58.75;33.83;;;;;;;-144.15;0.00;65763.66;10274854;28;20079;-68
2020/12/19 06:56:26;;;;;;;56.22;34.10;;;;;;;-144.15;0.00;65763.66;10275368;28;20049;-68
2020/12/19 07:01:30;;;;;;;57.47;34.00;;;;;;;-144.15;0.00;65763.66;10275624;28;20069;-69
2020/12/19 07:06:28;;;;;;;56.50;32.75;;;;;;;-144.15;0.00;65763.66;10279064;28;20521;-68
2020/12/19 07:11:40;;;;;;;60.28;33.80;;;;;;;-144.15;0.00;65763.66;10282981;28;20053;-69
2020/12/19 07:16:47;;;;;;;54.55;33.33;;;;;;;-144.15;0.00;65763.66;10282440;28;20409;-68
2020/12/19 07:21:46;;;;;;;59.85;31.05;;;;;;;-144.15;0.00;65763.66;10282598;28;20041;-69
2020/12/19 07:26:45;;;;;;;64.78;37.88;;;;;;;-144.15;0.00;65763.66;10281390;28;20076;-68
2020/12/19 07:31:53;;;;;;;58.65;33.67;;;;;;;-144.15;0.00;65763.66;10282397;28;20160;-68
2020/12/19 07:36:53;;;;;;;69.93;40.72;;;;;;;-144.15;0.00;65763.66;10282501;28;20068;-67
2020/12/19 07:42:03;;;;;;;53.88;30.95;;;;;;;-144.15;0.00;65763.66;10280938;28;20045;-67
2020/12/19 07:47:05;;;;;;;51.75;29.58;;;;;;;-144.15;0.00;65763.66;10280853;28;20083;-68
2020/12/19 07:52:07;;;;;;;51.30;30.17;;;;;;;-144.15;0.00;65763.66;10280670;28;20045;-68
2020/12/19 07:57:06;;;;;;;55.83;29.40;;;;;;;-144.15;0.00;65763.66;10280195;28;20498;-67
2020/12/19 08:02:07;;;;;;;49.55;28.23;;;;;;;-144.15;0.00;65763.66;10280067;28;20076;-69
2020/12/19 08:07:04;;;;;;;46.88;28.25;;;;;;;-144.15;0.00;65763.66;10280623;28;20490;-69
2020/12/19 08:12:11;;;;;;;50.25;32.00;;;;;;;-144.15;0.00;65763.66;10279149;28;20081;-70
2020/12/19 08:17:14;;;;;;;56.53;35.25;;;;;;;-144.15;0.00;65763.66;10278399;28;20083;-69
2020/12/19 08:22:13;;;;;;;29.50;17.55;;;;;;;-144.15;0.00;65763.66;10279586;28;20041;-69
2020/12/19 08:27:41;;;;;;;52.05;34.22;;;;;;;-144.15;0.00;65763.66;10279298;28;20072;-67
2020/12/19 08:32:43;;;;;;;107.72;44.70;;;;;;;-144.15;0.00;65763.66;10278997;28;20049;-67
2020/12/19 08:37:42;;;;;;;42.42;24.73;;;;;;;-144.15;0.00;65763.66;10278520;28;20478;-68
2020/12/19 08:42:40;;;;;;;44.55;28.42;;;;;;;-144.15;0.00;65763.66;10278736;28;20458;-68
2020/12/19 08:47:41;;;;;;;124.93;50.65;;;;;;;-144.15;0.00;65763.66;10278479;28;20080;-69
2020/12/19 08:52:39;;;;;;;119.03;59.13;;;;;;;-144.15;0.00;65763.66;10277953;28;20065;-68
2020/12/19 08:57:37;;;;;;;107.35;58.65;;;;;;;-144.15;0.00;65763.66;10278213;28;20048;-67
2020/12/19 09:02:38;;;;;;;56.00;37.22;;;;;;;-144.15;0.00;65763.66;10276526;28;20422;-67
2020/12/19 09:07:37;;;;;;;70.22;42.15;;;;;;;-144.15;0.00;65763.66;10277633;28;20084;-68
2020/12/19 09:12:35;;;;;;;67.03;32.88;;;;;;;-144.15;0.00;65763.66;10277472;28;20060;-68
2020/12/19 09:17:33;;;;;;;38.30;19.83;;;;;;;-144.15;0.00;65763.66;10323505;28;20075;-68
2020/12/19 09:22:30;;;;;;;49.10;27.80;;;;;;;-144.15;0.00;65763.66;10359186;28;20443;-68
2020/12/19 09:27:30;;;;;;;62.55;38.95;;;;;;;-144.15;0.00;65763.66;10357439;28;20075;-68
2020/12/19 09:32:30;;;;;;;68.63;39.72;;;;;;;-144.15;0.00;65763.66;10335883;28;20044;-68
2020/12/19 09:37:27;;;;;;;39.03;23.27;;;;;;;-144.15;0.00;65763.66;10354444;28;20067;-70
2020/12/19 09:42:25;;;;;;;34.95;21.98;;;;;;;-144.15;0.00;65763.66;10353014;28;20060;-70
2020/12/19 09:47:24;;;;;;;39.85;25.67;;;;;;;-144.15;0.00;65763.66;10354278;28;20078;-69
2020/12/19 09:52:21;;;;;;;42.65;26.25;;;;;;;-144.15;0.00;65763.66;10358011;28;20036;-70
2020/12/19 09:57:19;;;;;;;57.53;37.03;;;;;;;-144.15;0.00;65763.66;10357990;28;20432;-69
2020/12/19 10:02:17;;;;;;;31.20;20.52;;;;;;;-144.15;0.00;65763.66;10356826;28;20103;-70
2020/12/19 10:07:15;;;;;;;91.88;51.55;;;;;;;-144.15;0.00;65763.66;10357419;28;20489;-70
2020/12/19 10:12:14;;;;;;;49.40;32.17;;;;;;;-144.15;0.00;65763.66;10357434;28;20095;-70
2020/12/19 10:17:11;;;;;;;73.63;47.30;;;;;;;-144.15;0.00;65763.66;10356864;28;20051;-70
2020/12/19 10:22:09;;;;;;;57.00;37.35;;;;;;;-144.15;0.00;65763.66;10357306;28;20036;-67
2020/12/19 10:27:08;;;;;;;123.43;76.35;;;;;;;-144.15;0.00;65763.66;10357234;28;20373;-68
2020/12/19 10:32:07;;;;;;;73.45;46.42;;;;;;;-144.15;0.00;65763.66;10356837;28;20043;-69
2020/12/19 10:37:08;;;;;;;113.63;71.22;;;;;;;-144.15;0.00;65763.66;10338786;28;20068;-69
2020/12/19 10:42:06;;;;;;;101.22;63.53;;;;;;;-144.15;0.00;65763.66;10364220;28;20501;-69
2020/12/19 10:47:05;;;;;;;88.35;56.67;;;;;;;-144.15;0.00;65763.66;10364969;28;20071;-68
2020/12/19 10:52:03;;;;;;;121.82;79.00;;;;;;;-144.15;0.00;65763.66;10365108;28;20051;-68
2020/12/19 10:57:01;;;;;;;126.43;84.97;;;;;;;-144.15;0.00;65763.66;10364040;28;20051;-69
2020/12/19 11:01:59;;;;;;;91.10;61.67;;;;;;;-144.15;0.00;65763.66;10364376;28;20420;-69
2020/12/19 11:06:57;;;;;;;97.35;72.28;;;;;;;-144.15;0.00;65763.66;10364450;28;20090;-69
2020/12/19 11:11:56;;;;;;;126.07;70.82;;;;;;;-144.15;0.00;65763.66;10364326;28;20087;-70
2020/12/19 11:16:56;;;;;;;83.20;50.58;;;;;;;-144.15;0.00;65763.66;10364148;28;20047;-68
2020/12/19 11:22:07;;;;;;;86.55;58.88;;;;;;;-144.15;0.00;65763.66;10363564;28;20047;-68
2020/12/19 11:27:04;;;;;;;75.28;45.42;;;;;;;-144.15;0.00;65763.66;10363373;28;20064;-69
2020/12/19 11:32:03;;;;;;;70.45;51.67;;;;;;;-144.15;0.00;65763.66;10363389;28;20071;-69
2020/12/19 11:37:01;;;;;;;80.72;47.85;;;;;;;-144.15;0.00;65763.66;10363331;28;20052;-68
2020/12/19 11:42:01;;;;;;;233.00;124.72;;;;;;;-144.15;0.00;65763.66;10362269;28;20227;-69
2020/12/19 11:46:59;;;;;;;71.07;38.08;;;;;;;-144.15;0.00;65763.66;10362525;28;20075;-69
2020/12/19 11:51:59;;;;;;;122.70;68.80;;;;;;;-144.15;0.00;65763.66;10363160;28;20055;-68
2020/12/19 11:56:57;;;;;;;132.50;78.32;;;;;;;-144.15;0.00;65763.66;10362523;28;20083;-69
2020/12/19 12:01:59;;;;;;;97.70;55.70;;;;;;;-144.15;0.00;65763.66;10361946;28;20416;-70
2020/12/19 12:06:57;;;;;;;132.68;77.95;;;;;;;-144.15;0.00;65763.66;10362109;28;20072;-70
2020/12/19 12:11:55;;;;;;;71.28;40.85;;;;;;;-144.15;0.00;65763.66;10361022;28;20098;-69
2020/12/19 12:16:53;;;;;;;102.55;64.22;;;;;;;-144.15;0.00;65763.66;10361815;28;20051;-69
2020/12/19 12:21:51;;;;;;;99.53;62.78;;;;;;;-144.15;0.00;65763.66;10362577;28;20036;-69
2020/12/19 12:26:49;;;;;;;70.97;39.55;;;;;;;-144.15;0.00;65763.66;10361510;28;20154;-68
2020/12/19 12:31:47;;;;;;;69.35;36.65;;;;;;;-144.15;0.00;65763.66;10361392;28;20494;-69
2020/12/19 12:36:45;;;;;;;79.43;46.25;;;;;;;-144.15;0.00;65763.66;10361887;28;20510;-69
2020/12/19 12:41:52;;;;;;;82.03;47.40;;;;;;;-144.15;0.00;65763.66;10361815;28;20460;-68
2020/12/19 12:46:50;;;;;;;94.47;53.42;;;;;;;-144.15;0.00;65763.66;10360323;28;20075;-69
2020/12/19 12:51:50;;;;;;;52.00;34.92;;;;;;;-144.15;0.00;65763.66;10361547;28;20076;-68
2020/12/19 12:56:48;;;;;;;73.68;41.75;;;;;;;-144.15;0.00;65763.66;10360084;28;20380;-68
2020/12/19 13:01:46;;;;;;;96.75;53.22;;;;;;;-144.15;0.00;65763.66;10360548;28;20390;-69
2020/12/19 13:06:44;;;;;;;39.22;22.35;;;;;;;-144.15;0.00;65763.66;10360776;28;20079;-69
2020/12/19 13:11:42;;;;;;;47.05;27.25;;;;;;;-144.15;0.00;65763.66;10359400;28;20048;-69
2020/12/19 13:16:40;;;;;;;121.90;60.03;;;;;;;-144.15;0.00;65763.66;10361010;28;20039;-70
2020/12/19 13:21:45;;;;;;;64.45;42.30;;;;;;;-144.15;0.00;65763.66;10358352;28;20040;-69
2020/12/19 13:26:48;;;;;;;54.97;34.58;;;;;;;-144.15;0.00;65763.66;10353592;28;20075;-69
2020/12/19 13:31:47;;;;;;;63.53;38.40;;;;;;;-144.15;0.00;65763.66;10355771;28;20072;-70
2020/12/19 13:36:46;;;;;;;98.18;67.45;;;;;;;-144.15;0.00;65763.66;10355501;28;20470;-69
2020/12/19 13:41:44;;;;;;;69.32;38.55;;;;;;;-144.15;0.00;65763.66;10356227;28;20447;-70
2020/12/19 13:46:41;;;;;;;75.82;44.33;;;;;;;-144.15;0.00;65763.66;10339959;28;20082;-69
2020/12/19 13:51:40;;;;;;;98.43;58.92;;;;;;;-144.15;0.00;65763.66;10358018;28;20523;-68
2020/12/19 13:56:40;;;;;;;154.60;89.55;;;;;;;-144.15;0.00;65763.66;10358483;28;20240;-69
2020/12/19 14:01:38;;;;;;;136.50;77.90;;;;;;;-144.15;0.00;65763.66;10349174;28;20072;-68
2020/12/19 14:06:37;;;;;;;74.85;38.83;;;;;;;-144.15;0.00;65763.66;10309979;28;20509;-69
2020/12/19 14:11:37;;;;;;;61.63;38.60;;;;;;;-144.15;0.00;65763.66;10316101;28;20053;-68
2020/12/19 14:16:36;;;;;;;88.10;49.58;;;;;;;-144.15;0.00;65763.66;10315803;28;20047;-69
2020/12/19 14:21:35;;;;;;;86.22;46.85;;;;;;;-144.15;0.00;65763.66;10316744;28;20052;-68
2020/12/19 14:26:35;;;;;;;162.48;93.90;;;;;;;-144.15;0.00;65763.66;10315533;28;20493;-68
2020/12/19 14:31:33;;;;;;;104.05;62.80;;;;;;;-144.15;0.00;65763.66;10316559;28;20055;-68
2020/12/19 14:36:31;;;;;;;70.80;44.40;;;;;;;-144.15;0.00;65763.66;10315512;28;20079;-68
2020/12/19 14:41:30;;;;;;;71.28;39.88;;;;;;;-144.15;0.00;65763.66;10315050;28;20135;-68
2020/12/19 14:46:28;;;;;;;187.30;113.00;;;;;;;-144.15;0.00;65763.66;10314751;28;20080;-69
2020/12/19 14:51:27;;;;;;;145.23;77.25;;;;;;;-144.15;0.00;65763.66;10313241;28;20091;-69
2020/12/19 14:56:25;;;;;;;93.93;58.53;;;;;;;-144.15;0.00;65763.66;10270686;28;20072;-71
2020/12/19 15:01:25;;;;;;;91.28;51.80;;;;;;;-144.15;0.00;65763.66;10311799;28;20072;-69
2020/12/19 15:06:22;;;;;;;61.42;36.28;;;;;;;-144.15;0.00;65763.66;10311789;28;20075;-69
2020/12/19 15:11:20;;;;;;;93.55;61.67;;;;;;;-144.15;0.00;65763.66;10314843;28;20091;-68
2020/12/19 15:16:20;;;;;;;98.00;55.72;;;;;;;-144.15;0.00;65763.66;10314275;28;20053;-69
2020/12/19 15:21:19;;;;;;;75.43;43.88;;;;;;;-144.15;0.00;65763.66;10315428;28;20049;-70
2020/12/19 15:26:18;;;;;;;87.95;53.65;;;;;;;-144.15;0.00;65763.66;10318646;28;20087;-70
2020/12/19 15:31:15;;;;;;;97.55;54.72;;;;;;;-144.15;0.00;65763.66;10317195;28;20520;-70
2020/12/19 15:36:14;;;;;;;119.35;73.75;;;;;;;-144.15;0.00;65763.66;10320754;28;20049;-70
2020/12/19 15:41:12;;;;;;;167.93;91.70;;;;;;;-144.15;0.00;65763.66;10322440;28;20065;-69
2020/12/19 15:46:24;;;;;;;95.80;53.60;;;;;;;-144.15;0.00;65763.66;10337110;28;20470;-70
2020/12/19 15:51:22;;;;;;;240.45;133.93;;;;;;;-144.15;0.00;65763.66;10332614;28;20067;-70
2020/12/19 15:56:20;;;;;;;107.05;59.08;;;;;;;-144.15;0.00;65763.66;10321523;28;20055;-68
2020/12/19 16:01:18;;;;;;;144.23;79.03;;;;;;;-144.15;0.00;65763.66;10321850;28;20458;-71
2020/12/19 16:06:17;;;;;;;179.88;100.32;;;;;;;-144.15;0.00;65763.66;10320310;28;20068;-70
2020/12/19 16:11:16;;;;;;;225.90;134.95;;;;;;;-144.15;0.00;65763.66;10321082;28;20041;-70
2020/12/19 16:16:14;;;;;;;226.77;132.57;;;;;;;-144.15;0.00;65763.66;10320933;28;20090;-70
2020/12/19 16:21:11;;;;;;;208.20;107.10;;;;;;;-144.15;0.00;65763.66;10320076;28;20072;-69
2020/12/19 16:26:09;;;;;;;90.70;50.55;;;;;;;-144.15;0.00;65763.66;10309729;28;20063;-70
2020/12/19 16:31:08;;;;;;;114.03;69.70;;;;;;;-144.15;0.00;65763.66;10318060;28;20079;-70
2020/12/19 16:36:06;;;;;;;115.80;66.88;;;;;;;-144.15;0.00;65763.66;10318906;28;20161;-69
2020/12/19 16:41:03;;;;;;;68.35;41.05;;;;;;;-144.15;0.00;65763.66;10319425;28;20068;-69
2020/12/19 16:46:02;;;;;;;87.30;49.67;;;;;;;-144.15;0.00;65763.66;10319623;28;20047;-69
2020/12/19 16:51:00;;;;;;;105.38;60.35;;;;;;;-144.15;0.00;65763.66;10319884;28;20040;-70
2020/12/19 16:55:58;;;;;;;82.47;43.50;;;;;;;-144.15;0.00;65763.66;10318314;28;20040;-70
2020/12/19 17:00:56;;;;;;;75.13;39.80;;;;;;;-144.15;0.00;65763.66;10319010;28;20084;-70
2020/12/19 17:05:54;;;;;;;84.13;43.35;;;;;;;-144.15;0.00;65763.66;10311191;28;20079;-68
2020/12/19 17:10:55;;;;;;;86.63;45.67;;;;;;;-144.15;0.00;65763.66;10336381;28;20083;-69
2020/12/19 17:15:52;;;;;;;79.72;46.15;;;;;;;-144.15;0.00;65763.66;10329160;28;20072;-70
2020/12/19 17:20:50;;;;;;;76.20;44.00;;;;;;;-144.15;0.00;65763.66;10317663;28;20516;-70
2020/12/19 17:25:51;;;;;;;121.78;69.13;;;;;;;-144.15;0.00;65763.66;10316043;28;20068;-70
2020/12/19 17:30:50;;;;;;;66.43;36.17;;;;;;;-144.15;0.00;65763.66;10316672;28;20565;-69
2020/12/19 17:35:49;;;;;;;67.90;40.47;;;;;;;-144.15;0.00;65763.66;10316534;28;20072;-69
2020/12/19 17:40:47;;;;;;;76.13;42.42;;;;;;;-144.15;0.00;65763.66;10312407;28;20072;-69
2020/12/19 17:45:45;;;;;;;84.90;45.47;;;;;;;-144.15;0.00;65763.66;10307694;28;20083;-70
2020/12/19 17:50:43;;;;;;;66.80;37.33;;;;;;;-144.15;0.00;65763.66;10322739;28;20087;-70
2020/12/19 17:55:41;;;;;;;105.30;58.78;;;;;;;-144.15;0.00;65763.66;10315223;28;20079;-69
2020/12/19 18:00:39;;;;;;;146.57;85.78;;;;;;;-144.15;0.00;65763.66;10311316;28;20056;-70
2020/12/19 18:05:39;;;;;;;162.65;85.28;;;;;;;-144.15;0.00;65763.66;10315666;28;20056;-69
2020/12/19 18:10:38;;;;;;;89.30;43.40;;;;;;;-144.15;0.00;65763.66;10315554;28;20103;-70
2020/12/19 18:15:35;;;;;;;78.70;40.92;;;;;;;-144.15;0.00;65763.66;10315832;28;20437;-69
2020/12/19 18:20:33;;;;;;;132.55;62.53;;;;;;;-144.15;0.00;65763.66;10315631;28;20493;-68
2020/12/19 18:25:31;;;;;;;84.95;40.65;;;;;;;-144.15;0.00;65763.66;10315346;28;20412;-71
2020/12/19 18:30:30;;;;;;;87.43;39.67;;;;;;;-144.15;0.00;65763.66;10314401;28;20083;-68
2020/12/19 18:35:28;;;;;;;112.68;55.63;;;;;;;-144.15;0.00;65763.66;10315469;28;20051;-70
2020/12/19 18:40:26;;;;;;;135.10;71.20;;;;;;;-144.15;0.00;65763.66;10311852;28;20060;-69
2020/12/19 18:45:23;;;;;;;97.35;50.13;;;;;;;-144.15;0.00;65763.66;10311778;28;20087;-71
2020/12/19 18:50:23;;;;;;;102.95;55.60;;;;;;;-144.15;0.00;65763.66;10314706;28;20068;-71
2020/12/19 18:55:21;;;;;;;83.03;43.97;;;;;;;-144.15;0.00;65763.66;10314254;28;20052;-70
2020/12/19 19:00:20;;;;;;;63.28;35.97;;;;;;;-144.15;0.00;65763.66;10314875;28;20081;-69
2020/12/19 19:05:18;;;;;;;75.03;42.10;;;;;;;-144.15;0.00;65763.66;10320260;28;20071;-70
2020/12/19 19:10:16;;;;;;;79.18;41.15;;;;;;;-144.15;0.00;65763.66;10303176;28;20083;-70
2020/12/19 19:15:14;;;;;;;101.60;53.65;;;;;;;-144.15;0.00;65763.66;10321969;28;20076;-70
2020/12/19 19:20:12;;;;;;;80.85;44.35;;;;;;;-144.15;0.00;65763.66;10321280;28;20068;-70
2020/12/19 19:25:10;;;;;;;84.13;45.63;;;;;;;-144.15;0.00;65763.66;10320783;28;20079;-69
2020/12/19 19:30:09;;;;;;;79.18;46.53;;;;;;;-144.15;0.00;65763.66;10320326;28;20075;-70
2020/12/19 19:35:07;;;;;;;65.85;36.80;;;;;;;-144.15;0.00;65763.66;10320044;28;20040;-71
2020/12/19 19:40:05;;;;;;;76.82;42.30;;;;;;;-144.15;0.00;65763.66;10319895;28;20568;-70
2020/12/19 19:45:05;;;;;;;61.33;34.00;;;;;;;-144.15;0.00;65763.66;10319456;28;20437;-71
2020/12/19 19:50:04;;;;;;;45.20;26.63;;;;;;;-144.15;0.00;65763.66;10315535;28;20082;-70
2020/12/19 19:55:02;;;;;;;53.25;30.65;;;;;;;-144.15;0.00;65763.66;10357205;28;20060;-71
2020/12/19 20:00:00;;;;;;;63.65;32.25;;;;;;;-144.15;0.00;65763.66;10353303;28;20068;-71
2020/12/19 20:05:04;;;;;;;70.53;44.35;;;;;;;-144.15;0.00;65763.66;10356686;28;20041;-71
2020/12/19 20:10:02;;;;;;;59.65;32.33;;;;;;;-144.15;0.00;65763.66;10353454;28;20076;-69
2020/12/19 20:15:03;;;;;;;64.45;39.85;;;;;;;-144.15;0.00;65763.66;10354356;28;20072;-72
2020/12/19 20:20:01;;;;;;;57.42;31.80;;;;;;;-144.15;0.00;65763.66;10357402;28;20110;-71
2020/12/19 20:25:02;;;;;;;52.50;31.35;;;;;;;-144.15;0.00;65763.66;10357867;28;20036;-72
2020/12/19 20:30:00;;;;;;;57.60;31.52;;;;;;;-144.15;0.00;65763.66;10356836;28;20559;-71
2020/12/19 20:34:57;;;;;;;52.58;28.80;;;;;;;-144.15;0.00;65763.66;10338249;28;20072;-71
2020/12/19 20:39:55;;;;;;;65.15;34.15;;;;;;;-144.15;0.00;65763.66;10359127;28;20067;-71
2020/12/19 20:44:54;;;;;;;54.58;29.30;;;;;;;-144.15;0.00;65763.66;10358094;28;20067;-71
2020/12/19 20:49:51;;;;;;;48.90;28.27;;;;;;;-144.15;0.00;65763.66;10357938;28;20075;-71
2020/12/19 20:54:49;;;;;;;54.10;28.77;;;;;;;-144.15;0.00;65763.66;10358922;28;20032;-72
2020/12/19 20:59:47;;;;;;;49.72;27.77;;;;;;;-144.15;0.00;65763.66;10352612;28;20070;-72
2020/12/19 21:04:45;;;;;;;52.72;28.98;;;;;;;-144.15;0.00;65763.66;10358522;28;20036;-72
2020/12/19 21:09:43;;;;;;;59.10;32.15;;;;;;;-144.15;0.00;65763.66;10357571;28;20471;-72
2020/12/19 21:14:41;;;;;;;45.85;26.65;;;;;;;-144.15;0.00;65763.66;10338669;28;20079;-71
2020/12/19 21:19:44;;;;;;;59.03;33.58;;;;;;;-144.15;0.00;65763.66;10314280;28;20072;-71
2020/12/19 21:24:45;;;;;;;46.13;25.60;;;;;;;-144.15;0.00;65763.66;10316399;28;20441;-70
2020/12/19 21:29:43;;;;;;;48.60;30.48;;;;;;;-144.15;0.00;65763.66;10313855;28;20075;-71
2020/12/19 21:34:40;;;;;;;47.60;29.42;;;;;;;-144.15;0.00;65763.66;10312639;28;20072;-72
2020/12/19 21:39:38;;;;;;;49.95;30.40;;;;;;;-144.15;0.00;65763.66;10317125;28;20070;-73
2020/12/19 21:44:37;;;;;;;40.63;25.08;;;;;;;-144.15;0.00;65763.66;10318460;28;20036;-72
2020/12/19 21:49:34;;;;;;;51.20;28.00;;;;;;;-144.15;0.00;65763.66;10315272;28;20591;-72
2020/12/19 21:54:32;;;;;;;45.92;28.08;;;;;;;-144.15;0.00;65763.66;10315227;28;20040;-72
2020/12/19 21:59:30;;;;;;;47.47;25.63;;;;;;;-144.15;0.00;65763.66;10315378;28;20075;-73
2020/12/19 22:04:29;;;;;;;44.80;28.20;;;;;;;-144.15;0.00;65763.66;10298286;28;20516;-70
2020/12/19 22:09:27;;;;;;;47.28;24.27;;;;;;;-144.15;0.00;65763.66;10312685;28;20622;-72
2020/12/19 22:14:25;;;;;;;40.20;21.25;;;;;;;-144.15;0.00;65763.66;10295203;28;20063;-71
2020/12/19 22:19:23;;;;;;;42.47;24.05;;;;;;;-144.15;0.00;65763.66;10316728;28;20049;-72